createdAt,value
2023-03-25T00:03:37.686Z,74.29
2023-03-25T00:08:39.778Z,74.09
2023-03-25T00:13:42.149Z,73.27
2023-03-25T00:18:43.952Z,73.38
2023-03-25T00:23:46.780Z,73.34
2023-03-25T00:28:49.325Z,73.38
2023-03-25T00:33:51.345Z,73.16
2023-03-25T00:38:53.302Z,73.39
2023-03-25T00:43:57.388Z,72.97
2023-03-25T00:49:00.115Z,73.94
2023-03-25T00:54:02.194Z,72.88
2023-03-25T00:59:03.803Z,73.13
2023-03-25T01:04:12.057Z,72.16
2023-03-25T01:09:15.486Z,72.62
2023-03-25T01:14:20.889Z,72.17
2023-03-25T01:19:23.288Z,72.48
2023-03-25T01:24:25.828Z,72.29
2023-03-25T01:29:27.530Z,71.73
2023-03-25T01:34:32.566Z,70.74
2023-03-25T01:39:34.447Z,70.76
2023-03-25T01:44:39.186Z,70.91
2023-03-25T01:49:44.580Z,72.00
2023-03-25T01:54:47.579Z,70.68
2023-03-25T01:59:51.887Z,71.77
2023-03-25T02:05:25.983Z,72.31
2023-03-25T02:10:27.689Z,72.75
2023-03-25T02:15:44.852Z,72.56
2023-03-25T02:20:59.405Z,73.37
2023-03-25T02:26:13.280Z,72.77
2023-03-25T02:31:34.834Z,72.93
2023-03-25T02:36:57.141Z,73.19
2023-03-25T02:42:03.951Z,73.54
2023-03-25T02:47:17.253Z,73.44
2023-03-25T02:52:29.129Z,73.78
2023-03-25T02:57:36.537Z,74.54
2023-03-25T03:02:39.181Z,74.55
2023-03-25T03:07:44.744Z,74.34
2023-03-25T03:12:49.418Z,74.87
2023-03-25T03:18:13.439Z,75.03
2023-03-25T03:23:30.408Z,75.64
2023-03-25T03:28:46.542Z,75.93
2023-03-25T03:33:53.542Z,75.98
2023-03-25T03:39:01.645Z,75.47
2023-03-25T03:44:16.984Z,76.01
2023-03-25T03:49:23.785Z,75.88
2023-03-25T03:54:31.660Z,76.04
2023-03-25T03:59:47.758Z,75.89
2023-03-25T04:04:51.020Z,76.20
2023-03-25T04:10:02.851Z,76.30
2023-03-25T04:15:06.958Z,76.27
2023-03-25T04:20:13.518Z,76.05
2023-03-25T04:25:15.322Z,76.15
2023-03-25T04:30:19.667Z,76.34
2023-03-25T04:35:21.616Z,76.42
2023-03-25T04:40:25.655Z,76.20
2023-03-25T04:45:28.826Z,76.43
2023-03-25T04:50:31.641Z,76.23
2023-03-25T04:55:34.680Z,76.40
2023-03-25T05:00:36.281Z,76.51
2023-03-25T05:05:38.403Z,76.99
2023-03-25T05:10:40.190Z,77.00
2023-03-25T05:15:43.208Z,77.09
2023-03-25T05:20:46.994Z,76.85
2023-03-25T05:25:51.193Z,76.68
2023-03-25T05:30:53.079Z,76.77
2023-03-25T05:35:54.958Z,76.49
2023-03-25T05:40:56.836Z,76.31
2023-03-25T05:45:58.468Z,76.37
2023-03-25T05:51:04.343Z,76.33
2023-03-25T05:56:06.349Z,75.70
2023-03-25T06:01:17.000Z,75.30
2023-03-25T06:06:27.845Z,74.82
2023-03-25T06:11:29.568Z,74.87
2023-03-25T06:16:33.261Z,74.70
2023-03-25T06:21:35.038Z,72.67
2023-03-25T06:26:37.300Z,71.99
2023-03-25T06:31:39.899Z,71.81
2023-03-25T06:36:41.673Z,71.01
2023-03-25T06:41:43.294Z,71.15
2023-03-25T06:46:50.765Z,70.78
2023-03-25T06:51:58.969Z,69.86
2023-03-25T06:57:00.635Z,70.07
2023-03-25T07:02:02.344Z,68.95
2023-03-25T07:07:04.087Z,69.57
2023-03-25T07:12:07.736Z,68.68
2023-03-25T07:17:10.677Z,67.90
2023-03-25T07:22:12.299Z,67.92
2023-03-25T07:27:15.718Z,68.48
2023-03-25T07:32:24.998Z,67.57
2023-03-25T07:37:26.876Z,67.29
2023-03-25T07:42:28.553Z,66.79
2023-03-25T07:47:50.474Z,66.17
2023-03-25T07:52:52.191Z,65.87
2023-03-25T07:57:53.916Z,64.93
2023-03-25T08:02:56.236Z,64.53
2023-03-25T08:08:00.965Z,64.05
2023-03-25T08:13:02.578Z,63.10
2023-03-25T08:18:05.502Z,62.47
2023-03-25T08:23:10.508Z,62.04
2023-03-25T08:28:13.390Z,61.94
2023-03-25T08:33:18.439Z,62.51
2023-03-25T08:38:21.559Z,61.91
2023-03-25T08:43:23.154Z,61.04
2023-03-25T08:48:24.899Z,61.60
2023-03-25T08:53:27.181Z,60.65
2023-03-25T08:58:28.839Z,60.26
2023-03-25T09:03:30.554Z,60.20
2023-03-25T09:08:33.116Z,60.37
2023-03-25T09:13:34.717Z,59.99
2023-03-25T09:18:36.827Z,60.90
2023-03-25T09:23:38.444Z,60.84
2023-03-25T09:28:40.223Z,60.86
2023-03-25T09:33:42.032Z,60.75
2023-03-25T09:38:43.807Z,60.11
2023-03-25T09:44:05.947Z,60.25
2023-03-25T09:49:21.515Z,59.58
2023-03-25T09:54:27.861Z,59.47
2023-03-25T09:59:41.960Z,59.26
2023-03-25T10:05:03.768Z,58.38
2023-03-25T10:10:38.166Z,58.14
2023-03-25T10:15:49.243Z,57.73
2023-03-25T10:21:29.634Z,58.43
2023-03-25T10:26:42.774Z,56.57
2023-03-25T10:31:56.133Z,56.79
2023-03-25T10:37:10.339Z,57.10
2023-03-25T10:42:30.558Z,56.75
2023-03-25T10:47:38.698Z,57.47
2023-03-25T10:52:40.843Z,56.78
2023-03-25T10:57:43.034Z,55.68
2023-03-25T11:02:46.402Z,55.32
2023-03-25T11:07:55.090Z,55.75
2023-03-25T11:13:01.744Z,55.89
2023-03-25T11:18:22.172Z,55.00
2023-03-25T11:23:51.836Z,56.08
2023-03-25T11:28:56.028Z,54.72
2023-03-25T11:34:20.107Z,54.25
2023-03-25T11:39:40.062Z,55.28
2023-03-25T11:44:42.104Z,53.70
2023-03-25T11:49:49.379Z,53.18
2023-03-25T11:54:53.703Z,51.72
2023-03-25T12:00:08.256Z,51.39
2023-03-25T12:05:16.556Z,50.10
2023-03-25T12:10:39.824Z,50.18
2023-03-25T12:15:49.576Z,50.03
2023-03-25T12:21:02.172Z,50.95
2023-03-25T12:26:13.121Z,50.67
2023-03-25T12:31:29.927Z,50.23
2023-03-25T12:36:31.873Z,51.10
2023-03-25T12:42:10.854Z,51.32
2023-03-25T12:47:23.713Z,51.60
2023-03-25T12:52:43.468Z,50.84
2023-03-25T12:58:23.569Z,50.93
2023-03-25T13:03:34.454Z,49.87
2023-03-25T13:08:41.920Z,49.88
2023-03-25T13:13:46.257Z,49.23
2023-03-25T13:18:54.056Z,49.87
2023-03-25T13:24:01.585Z,49.54
2023-03-25T13:29:05.577Z,49.52
2023-03-25T13:34:30.691Z,49.05
2023-03-25T13:39:54.503Z,48.73
2023-03-25T13:44:59.147Z,48.79
2023-03-25T13:50:05.736Z,47.57
2023-03-25T13:55:16.888Z,48.72
2023-03-25T14:00:36.732Z,49.17
2023-03-25T14:06:02.773Z,49.14
2023-03-25T14:11:29.176Z,49.05
2023-03-25T14:16:36.223Z,48.29
2023-03-25T14:21:38.370Z,47.87
2023-03-25T14:26:50.477Z,46.69
2023-03-25T14:32:16.675Z,46.38
2023-03-25T14:37:27.131Z,46.19
2023-03-25T14:42:43.165Z,46.59
2023-03-25T14:47:55.847Z,45.18
2023-03-25T14:53:02.915Z,43.89
2023-03-25T14:58:26.201Z,49.00
2023-03-25T15:03:34.878Z,50.32
2023-03-25T15:08:40.400Z,49.87
2023-03-25T15:13:52.805Z,50.90
2023-03-25T15:18:54.717Z,50.66
2023-03-25T15:24:11.901Z,50.43
2023-03-25T15:29:17.322Z,51.09
2023-03-25T15:34:50.916Z,50.92
2023-03-25T15:40:13.783Z,50.06
2023-03-25T15:45:30.789Z,49.51
2023-03-25T15:50:53.131Z,48.23
2023-03-25T15:56:21.671Z,47.65
2023-03-25T16:01:32.788Z,48.32
2023-03-25T16:06:40.840Z,48.26
2023-03-25T16:11:46.202Z,47.81
2023-03-25T16:16:55.068Z,47.92
2023-03-25T16:22:02.404Z,48.29
2023-03-25T16:27:12.350Z,48.83
2023-03-25T16:32:20.929Z,48.46
2023-03-25T16:37:22.847Z,49.21
2023-03-25T16:42:28.057Z,49.22
2023-03-25T16:47:33.756Z,49.47
2023-03-25T16:52:37.162Z,50.01
2023-03-25T16:57:40.764Z,50.22
2023-03-25T17:02:43.416Z,53.77
2023-03-25T17:07:51.060Z,56.86
2023-03-25T17:12:59.500Z,57.65
2023-03-25T17:18:03.671Z,58.05
2023-03-25T17:23:16.155Z,58.08
2023-03-25T17:28:33.997Z,58.25
2023-03-25T17:33:39.124Z,68.04
2023-03-25T17:38:46.342Z,68.77
2023-03-25T17:43:51.157Z,67.74
2023-03-25T17:48:55.338Z,69.83
2023-03-25T17:53:57.539Z,70.44
2023-03-25T17:59:05.003Z,70.86
2023-03-25T18:04:06.866Z,70.98
2023-03-25T18:09:20.586Z,70.49
2023-03-25T18:14:24.124Z,72.34
2023-03-25T18:19:31.362Z,72.78
2023-03-25T18:24:34.139Z,73.10
2023-03-25T18:29:37.524Z,72.57
2023-03-25T18:34:39.231Z,73.12
2023-03-25T18:39:41.016Z,72.94
2023-03-25T18:44:42.684Z,73.18
2023-03-25T18:49:44.322Z,73.83
2023-03-25T18:54:45.953Z,72.97
2023-03-25T18:59:47.587Z,74.94
2023-03-25T19:05:00.211Z,73.46
2023-03-25T19:10:02.490Z,75.05
2023-03-25T19:15:04.633Z,74.64
2023-03-25T19:20:07.591Z,75.33
2023-03-25T19:25:09.540Z,75.01
2023-03-25T19:30:15.406Z,74.84
2023-03-25T19:35:19.278Z,74.79
2023-03-25T19:40:24.054Z,73.64
2023-03-25T19:45:27.287Z,72.58
2023-03-25T19:50:33.305Z,71.99
2023-03-25T19:55:35.203Z,72.42
2023-03-25T20:00:37.023Z,71.71
2023-03-25T20:05:38.874Z,71.58
2023-03-25T20:10:41.347Z,70.74
2023-03-25T20:15:43.043Z,69.95
2023-03-25T20:20:44.703Z,69.77
2023-03-25T20:25:47.398Z,69.49
2023-03-25T20:30:49.000Z,69.12
2023-03-25T20:35:51.245Z,68.76
2023-03-25T20:40:54.477Z,66.54
2023-03-25T20:45:56.909Z,66.41
2023-03-25T20:51:00.966Z,67.21
2023-03-25T20:56:04.254Z,66.53
2023-03-25T21:01:06.012Z,67.55
2023-03-25T21:06:20.963Z,68.71
2023-03-25T21:11:25.913Z,69.33
2023-03-25T21:16:27.764Z,70.20
2023-03-25T21:21:30.787Z,71.32
2023-03-25T21:26:33.282Z,71.42
2023-03-25T21:31:35.025Z,71.58
2023-03-25T21:36:36.868Z,71.99
2023-03-25T21:41:38.753Z,72.02
2023-03-25T21:46:40.917Z,72.19
2023-03-25T21:51:44.223Z,71.62
2023-03-25T21:56:47.129Z,72.47
2023-03-25T22:01:48.836Z,71.97
2023-03-25T22:06:50.535Z,71.43
2023-03-25T22:11:52.258Z,71.42
2023-03-25T22:16:54.098Z,71.00
2023-03-25T22:21:56.487Z,71.99
2023-03-25T22:26:58.244Z,71.46
2023-03-25T22:32:06.989Z,71.73
2023-03-25T22:37:08.856Z,71.68
2023-03-25T22:42:10.838Z,72.54
2023-03-25T22:47:12.588Z,72.93
2023-03-25T22:52:14.275Z,73.02
2023-03-25T22:57:16.302Z,73.28
2023-03-25T23:02:18.575Z,73.28
2023-03-25T23:07:20.299Z,73.29
2023-03-25T23:17:26.455Z,72.61
2023-03-25T23:22:28.098Z,72.65
2023-03-25T23:27:30.630Z,72.00
2023-03-25T23:32:35.096Z,71.58
2023-03-25T23:37:36.748Z,71.30
2023-03-25T23:42:38.717Z,71.04
2023-03-25T23:47:40.374Z,70.77
2023-03-25T23:52:42.013Z,70.29
2023-03-25T23:57:43.667Z,70.51
